Time;durP1;ratioP1;P1;durP2;ratioP2;P2;SDS_P1;SDS_P2;PMS_P1;PMS_P2;Temp;Humidity;BMP_temperature;BMP_pressure;BME280_temperature;BME280_humidity;BME280_pressure;Samples;Min_cycle;Max_cycle;Signal;HPM_P1;HPM_P2
2023/05/05 00:01:52;;;;;;;3.40;1.32;;;;;;;5.38;62.06;100666.30;1664197;83;21066;-62
2023/05/05 00:04:21;;;;;;;6.92;2.12;;;;;;;5.36;61.93;100657.67;1694391;83;21022;-66
2023/05/05 00:06:46;;;;;;;4.60;1.82;;;;;;;5.31;62.99;100651.69;1695238;82;21050;-62
2023/05/05 00:09:12;;;;;;;4.03;1.92;;;;;;;5.28;62.95;100662.08;1691309;82;21140;-62
2023/05/05 00:11:39;;;;;;;4.45;1.47;;;;;;;5.28;63.27;100667.25;1693266;82;21038;-63
2023/05/05 00:14:05;;;;;;;9.05;2.00;;;;;;;5.31;62.46;100664.63;1692795;83;21020;-62
2023/05/05 00:16:31;;;;;;;7.08;1.75;;;;;;;5.26;62.82;100671.59;1693477;83;20975;-62
2023/05/05 00:18:59;;;;;;;4.42;1.55;;;;;;;5.27;62.68;100670.73;1689040;82;21002;-63
2023/05/05 00:21:26;;;;;;;6.72;1.55;;;;;;;5.31;62.54;100667.22;1694544;83;20975;-62
2023/05/05 00:23:53;;;;;;;4.17;1.80;;;;;;;5.39;63.21;100679.66;1690643;82;21010;-64
2023/05/05 00:26:20;;;;;;;2.57;1.40;;;;;;;5.47;63.16;100675.70;1688165;82;21187;-63
2023/05/05 00:28:47;;;;;;;4.40;1.95;;;;;;;5.41;62.73;100686.98;1696028;83;21341;-62
2023/05/05 00:31:16;;;;;;;4.60;1.70;;;;;;;5.37;63.72;100672.33;1692111;82;20971;-62
2023/05/05 00:33:43;;;;;;;2.50;1.52;;;;;;;5.41;63.70;100684.39;1689491;82;20980;-62
2023/05/05 00:36:09;;;;;;;3.33;1.77;;;;;;;5.46;63.42;100680.02;1689688;83;21118;-62
2023/05/05 00:38:35;;;;;;;3.55;1.80;;;;;;;5.42;62.98;100680.91;1689490;83;22256;-62
2023/05/05 00:41:03;;;;;;;4.70;1.40;;;;;;;5.41;63.83;100680.95;1688053;83;20971;-64
2023/05/05 00:43:29;;;;;;;6.90;2.55;;;;;;;5.48;63.81;100689.91;1690998;83;21027;-62
2023/05/05 00:46:05;;;;;;;6.83;2.10;;;;;;;5.49;63.55;100683.88;1694659;83;21006;-62
2023/05/05 00:48:32;;;;;;;3.65;2.05;;;;;;;5.50;63.51;100689.46;1686438;83;21059;-62
2023/05/05 00:50:59;;;;;;;4.83;1.45;;;;;;;5.45;63.57;100695.13;1693819;83;21019;-62
2023/05/05 00:53:26;;;;;;;5.12;2.22;;;;;;;5.48;63.30;100696.38;1694498;83;21023;-63
2023/05/05 00:55:53;;;;;;;8.60;2.00;;;;;;;5.44;63.37;100692.13;1691747;83;21526;-62
2023/05/05 00:58:19;;;;;;;7.30;2.15;;;;;;;5.38;63.65;100689.61;1690637;83;21593;-68
2023/05/05 01:00:46;;;;;;;3.67;1.75;;;;;;;5.39;64.15;100690.02;1685891;83;21062;-62
2023/05/05 01:03:14;;;;;;;2.92;1.30;;;;;;;5.38;63.80;100692.20;1688473;83;21030;-62
2023/05/05 01:05:58;;;;;;;4.40;1.55;;;;;;;5.32;63.65;100694.83;1691750;83;21078;-62
2023/05/05 01:08:34;;;;;;;4.47;1.60;;;;;;;5.24;63.98;100691.48;1690213;83;21070;-63
2023/05/05 01:11:04;;;;;;;4.75;1.65;;;;;;;5.14;63.77;100688.95;1686762;83;21109;-63
2023/05/05 01:13:53;;;;;;;3.72;1.57;;;;;;;5.08;64.31;100691.61;1687398;83;21569;-63
2023/05/05 01:16:23;;;;;;;6.78;1.75;;;;;;;5.05;64.00;100686.47;1686912;83;21066;-62
2023/05/05 01:19:25;;;;;;;5.85;1.77;;;;;;;4.99;64.20;100685.67;1685579;83;21030;-64
2023/05/05 01:22:01;;;;;;;3.62;1.47;;;;;;;5.03;64.26;100690.79;1691620;82;20955;-62
2023/05/05 01:24:59;;;;;;;3.65;1.37;;;;;;;5.07;63.96;100689.91;1689685;83;20978;-62
2023/05/05 01:27:35;;;;;;;4.67;1.32;;;;;;;5.02;63.58;100689.09;1690423;84;21031;-62
2023/05/05 01:30:21;;;;;;;3.55;1.30;;;;;;;4.98;64.05;100695.14;1694462;82;21037;-63
2023/05/05 01:32:55;;;;;;;6.50;1.82;;;;;;;4.96;64.27;100683.97;1602402;88;20993;-62
2023/05/05 01:35:28;;;;;;;5.12;1.70;;;;;;;4.97;64.29;100692.59;1604699;87;21024;-63
2023/05/05 01:38:06;;;;;;;3.77;1.52;;;;;;;4.90;63.78;100690.47;1601951;87;21056;-62
2023/05/05 01:40:39;;;;;;;4.05;1.47;;;;;;;4.80;64.15;100687.55;1600088;87;21068;-62
2023/05/05 01:43:07;;;;;;;6.78;1.50;;;;;;;4.74;64.82;100685.88;1602434;87;21080;-63
2023/05/05 01:45:36;;;;;;;3.35;1.30;;;;;;;4.71;64.25;100678.99;1600146;88;21655;-62
2023/05/05 01:48:05;;;;;;;4.83;2.15;;;;;;;4.67;65.17;100678.58;1546968;91;21763;-62
2023/05/05 01:50:33;;;;;;;5.53;1.90;;;;;;;4.66;64.68;100672.99;1566175;90;21146;-63
2023/05/05 01:53:02;;;;;;;7.15;1.77;;;;;;;4.74;64.82;100677.27;1566610;89;21538;-62
2023/05/05 01:55:31;;;;;;;5.70;2.05;;;;;;;4.69;64.66;100678.14;1566248;90;21047;-62
2023/05/05 01:58:00;;;;;;;3.33;1.60;;;;;;;4.68;64.81;100675.58;1568914;89;20983;-63
2023/05/05 02:00:28;;;;;;;2.33;1.40;;;;;;;4.71;64.91;100671.67;1602337;88;20977;-62
2023/05/05 02:02:56;;;;;;;;;;;;;;;4.74;64.78;100682.00;1606982;88;21056;-62
2023/05/05 02:05:23;;;;;;;4.78;1.62;;;;;;;4.74;66.65;100669.50;1603448;88;20187;-62
2023/05/05 02:07:52;;;;;;;7.20;2.05;;;;;;;4.77;64.75;100672.06;1604404;88;21590;-63
2023/05/05 02:10:18;;;;;;;5.28;1.80;;;;;;;4.76;65.01;100683.26;1659817;82;21035;-62
2023/05/05 02:12:47;;;;;;;5.97;1.60;;;;;;;4.80;64.75;100672.03;1693140;82;21034;-62
2023/05/05 02:15:16;;;;;;;4.40;1.35;;;;;;;4.82;64.95;100667.70;1691461;83;21041;-62
2023/05/05 02:17:43;;;;;;;6.42;1.92;;;;;;;4.82;64.79;100670.30;1695350;82;21526;-64
2023/05/05 02:20:12;;;;;;;3.83;1.72;;;;;;;4.90;64.90;100678.82;1695061;82;21090;-63
2023/05/05 02:22:39;;;;;;;2.55;1.20;;;;;;;4.86;64.39;100678.44;1697592;82;21046;-62
2023/05/05 02:25:07;;;;;;;6.20;1.98;;;;;;;4.83;64.84;100674.59;1694393;83;21066;-64
2023/05/05 02:27:36;;;;;;;4.67;1.32;;;;;;;4.82;64.74;100676.77;1693603;83;21002;-63
2023/05/05 02:30:06;;;;;;;5.67;1.67;;;;;;;4.81;64.48;100680.20;1692376;83;21058;-62
2023/05/05 02:32:36;;;;;;;2.75;1.32;;;;;;;4.84;64.42;100682.77;1691982;82;20999;-62
2023/05/05 02:35:09;;;;;;;2.95;1.57;;;;;;;4.83;64.39;100669.41;1694370;83;20956;-62
2023/05/05 02:37:38;;;;;;;3.20;1.45;;;;;;;4.84;64.46;100675.00;1693486;82;21006;-62
2023/05/05 02:40:07;;;;;;;4.47;1.55;;;;;;;4.90;64.37;100672.35;1693327;82;21089;-63
2023/05/05 02:42:39;;;;;;;8.18;1.60;;;;;;;4.81;64.28;100671.14;1693689;83;21081;-62
2023/05/05 02:45:12;;;;;;;3.62;1.45;;;;;;;4.73;64.39;100688.45;1693353;82;21573;-63
2023/05/05 02:47:40;;;;;;;1.70;1.07;;;;;;;4.75;64.37;100684.14;1692997;83;21074;-62
2023/05/05 02:50:08;;;;;;;2.45;1.60;;;;;;;4.67;64.02;100677.28;1693507;82;21002;-62
2023/05/05 02:52:35;;;;;;;;;;;;;;;4.58;64.15;100672.19;1697068;83;21005;-62
2023/05/05 02:55:03;;;;;;;1.87;1.20;;;;;;;4.53;64.05;100681.70;1693869;83;20148;-62
2023/05/05 02:57:40;;;;;;;1.90;1.20;;;;;;;4.48;64.07;100687.34;1692268;82;21038;-62
2023/05/05 03:00:15;;;;;;;4.30;1.20;;;;;;;4.41;63.80;100683.09;1637512;86;20984;-62
2023/05/05 03:02:45;;;;;;;2.33;1.05;;;;;;;4.31;63.95;100682.72;1611737;88;21421;-62
2023/05/05 03:05:20;;;;;;;4.62;1.22;;;;;;;4.21;63.85;100693.12;1641818;85;21131;-62
2023/05/05 03:08:05;;;;;;;1.95;1.07;;;;;;;4.16;63.69;100687.11;1615659;85;21095;-62
2023/05/05 03:10:38;;;;;;;5.03;0.93;;;;;;;4.07;63.74;100692.34;1636611;85;21110;-63
2023/05/05 03:13:07;;;;;;;1.98;1.12;;;;;;;4.00;63.75;100682.89;1639399;85;21104;-62
2023/05/05 03:15:43;;;;;;;2.85;1.07;;;;;;;3.99;63.75;100695.39;1641826;85;21082;-62
2023/05/05 03:18:11;;;;;;;2.45;1.02;;;;;;;3.96;63.72;100699.29;1604426;87;21586;-63
2023/05/05 03:20:39;;;;;;;;;;;;;;;3.94;63.61;100701.02;1591932;89;21690;-65
2023/05/05 03:23:06;;;;;;;5.80;1.40;;;;;;;3.89;63.49;100707.92;1570720;88;20150;-62
2023/05/05 03:25:48;;;;;;;2.65;1.17;;;;;;;3.81;63.43;100713.14;1594345;89;21145;-63
2023/05/05 03:28:15;;;;;;;3.83;1.30;;;;;;;3.73;63.35;100713.16;1570803;89;21047;-62
2023/05/05 03:30:42;;;;;;;2.95;1.02;;;;;;;3.71;63.36;100704.55;1575359;89;21055;-62
2023/05/05 03:33:10;;;;;;;3.52;1.10;;;;;;;3.71;63.32;100707.57;1594412;87;21125;-62
2023/05/05 03:35:37;;;;;;;1.85;1.07;;;;;;;3.69;63.21;100706.27;1572058;88;21019;-62
2023/05/05 03:38:05;;;;;;;2.35;1.17;;;;;;;3.69;63.13;100712.73;1614427;85;21075;-62
2023/05/05 03:40:31;;;;;;;6.75;1.47;;;;;;;3.68;63.14;100701.98;1630809;86;21037;-62
2023/05/05 03:42:57;;;;;;;3.47;1.20;;;;;;;3.71;63.06;100707.13;1616610;86;21011;-62
2023/05/05 03:45:24;;;;;;;2.10;1.10;;;;;;;3.71;63.16;100708.42;1682741;84;21011;-62
2023/05/05 03:47:50;;;;;;;3.53;1.27;;;;;;;3.75;63.30;100714.02;1686724;82;21015;-62
2023/05/05 03:50:16;;;;;;;1.85;1.20;;;;;;;3.78;63.09;100721.76;1684813;84;21094;-62
2023/05/05 03:52:43;;;;;;;2.90;1.35;;;;;;;3.80;63.18;100709.67;1684888;84;21010;-62
2023/05/05 03:55:09;;;;;;;2.65;1.50;;;;;;;3.81;63.28;100713.99;1690219;82;21074;-62
2023/05/05 03:57:36;;;;;;;5.83;1.63;;;;;;;3.86;63.33;100723.44;1691967;83;21466;-63
2023/05/05 04:00:03;;;;;;;4.62;1.40;;;;;;;3.89;63.38;100726.01;1686532;83;21075;-64
2023/05/05 04:02:29;;;;;;;1.70;1.02;;;;;;;3.92;63.32;100723.41;1691190;83;21042;-62
2023/05/05 04:04:55;;;;;;;3.35;1.00;;;;;;;3.93;63.42;100725.14;1688675;82;20971;-64
2023/05/05 04:07:22;;;;;;;2.52;1.22;;;;;;;3.96;63.28;100735.47;1690693;82;20975;-62
2023/05/05 04:09:49;;;;;;;3.45;1.30;;;;;;;3.95;63.34;100729.84;1690302;83;20991;-62
2023/05/05 04:12:15;;;;;;;3.25;1.12;;;;;;;3.94;63.29;100734.60;1688653;83;21101;-62
2023/05/05 04:14:43;;;;;;;2.83;1.20;;;;;;;3.97;63.95;100725.55;1692994;83;20947;-62
2023/05/05 04:17:09;;;;;;;3.30;1.30;;;;;;;3.99;63.52;100725.11;1689574;83;21549;-62
2023/05/05 04:19:36;;;;;;;3.00;1.00;;;;;;;4.03;63.43;100734.56;1696368;83;21075;-62
2023/05/05 04:22:02;;;;;;;2.00;1.10;;;;;;;4.12;63.38;100739.71;1690986;83;21362;-62
2023/05/05 04:24:29;;;;;;;3.15;1.27;;;;;;;4.18;63.35;100732.36;1691333;82;21054;-62
2023/05/05 04:26:55;;;;;;;1.80;1.00;;;;;;;4.28;63.45;100726.69;1692177;82;21069;-62
2023/05/05 04:29:21;;;;;;;2.85;1.17;;;;;;;4.37;63.24;100734.39;1698190;82;21165;-62
2023/05/05 04:31:49;;;;;;;3.37;1.20;;;;;;;4.46;63.25;100741.67;1693541;83;21514;-61
2023/05/05 04:34:15;;;;;;;2.92;1.40;;;;;;;4.58;63.15;100743.32;1694322;83;21478;-62
2023/05/05 04:36:41;;;;;;;2.25;1.52;;;;;;;4.63;62.70;100738.98;1693911;82;20955;-61
2023/05/05 04:39:08;;;;;;;3.50;1.42;;;;;;;4.65;62.66;100735.08;1692173;83;21093;-61
2023/05/05 04:41:34;;;;;;;2.80;1.50;;;;;;;4.70;62.55;100738.09;1692152;83;20978;-61
2023/05/05 04:44:00;;;;;;;2.50;1.25;;;;;;;4.74;62.46;100739.36;1694064;82;21061;-62
2023/05/05 04:46:27;;;;;;;3.20;1.15;;;;;;;4.81;62.42;100743.59;1695097;82;21145;-62
2023/05/05 04:48:55;;;;;;;2.27;1.10;;;;;;;4.88;62.39;100750.45;1673840;82;21034;-63
2023/05/05 04:51:21;;;;;;;4.05;1.42;;;;;;;4.92;62.44;100744.38;1692200;82;22584;-62
2023/05/05 04:53:47;;;;;;;3.30;1.40;;;;;;;4.94;62.36;100749.97;1691988;83;20987;-62
2023/05/05 04:56:14;;;;;;;1.55;0.98;;;;;;;4.99;62.46;100755.56;1693987;83;21132;-62
2023/05/05 04:58:40;;;;;;;5.20;1.52;;;;;;;5.06;62.53;100758.06;1692703;83;21097;-62
2023/05/05 05:01:08;;;;;;;4.65;1.72;;;;;;;5.19;62.59;100760.57;1690984;83;21097;-61
2023/05/05 05:03:35;;;;;;;4.20;1.55;;;;;;;5.28;62.44;100765.66;1693713;82;21042;-63
2023/05/05 05:06:01;;;;;;;2.42;1.60;;;;;;;5.41;62.49;100780.22;1697049;82;21002;-63
2023/05/05 05:08:28;;;;;;;1.98;1.32;;;;;;;5.44;62.19;100779.34;1692270;82;21119;-63
2023/05/05 05:10:58;;;;;;;2.47;1.30;;;;;;;5.49;62.24;100777.53;1691754;83;20995;-62
2023/05/05 05:13:25;;;;;;;1.60;1.12;;;;;;;5.47;61.78;100784.05;1691069;83;21015;-63
2023/05/05 05:15:51;;;;;;;1.45;1.15;;;;;;;5.45;61.66;100793.55;1691743;82;21007;-63
2023/05/05 05:18:18;;;;;;;2.87;1.20;;;;;;;5.40;61.52;100786.25;1692498;83;21668;-63
2023/05/05 05:20:45;;;;;;;5.47;1.77;;;;;;;5.42;61.70;100789.70;1692055;83;21537;-65
2023/05/05 05:23:11;;;;;;;5.42;1.75;;;;;;;5.48;61.48;100766.33;1690784;83;20990;-62
2023/05/05 05:25:41;;;;;;;3.12;1.32;;;;;;;5.56;60.97;100781.80;1691996;83;20982;-65
2023/05/05 05:28:09;;;;;;;3.55;2.12;;;;;;;5.47;61.02;100774.98;1672550;83;20940;-63
2023/05/05 05:30:39;;;;;;;2.00;0.98;;;;;;;5.46;60.95;100793.11;1692855;83;21034;-62
2023/05/05 05:33:06;;;;;;;3.17;1.35;;;;;;;5.47;61.32;100788.38;1691274;83;21014;-64
2023/05/05 05:35:32;;;;;;;2.60;1.07;;;;;;;5.61;61.34;100786.06;1691582;83;21026;-62
2023/05/05 05:37:58;;;;;;;4.90;1.32;;;;;;;5.68;60.88;100788.59;1691719;83;21010;-64
2023/05/05 05:40:25;;;;;;;3.22;1.10;;;;;;;5.65;60.63;100774.38;1694018;83;21002;-63
2023/05/05 05:42:51;;;;;;;2.35;1.15;;;;;;;5.59;60.48;100791.69;1694934;83;21012;-64
2023/05/05 05:45:17;;;;;;;4.92;1.35;;;;;;;5.60;60.57;100780.47;1696393;82;21105;-63
2023/05/05 05:47:44;;;;;;;4.42;2.17;;;;;;;5.79;60.92;100793.22;1692770;83;21046;-63
2023/05/05 05:50:10;;;;;;;3.20;1.35;;;;;;;5.94;60.57;100794.40;1690238;83;21014;-63
2023/05/05 05:52:37;;;;;;;3.33;1.62;;;;;;;6.01;60.74;100796.03;1692718;83;21035;-63
2023/05/05 05:55:05;;;;;;;3.67;1.10;;;;;;;6.14;60.83;100784.23;1689681;83;21708;-68
2023/05/05 05:57:36;;;;;;;3.20;1.30;;;;;;;6.35;61.02;100787.84;1696685;83;21286;-63
2023/05/05 05:59:59;;;;;;;4.37;1.45;;;;;;;6.53;60.37;100809.26;1689436;83;21015;-64
2023/05/05 06:02:26;;;;;;;4.22;1.40;;;;;;;6.45;60.21;100790.74;1699519;83;21058;-63
2023/05/05 06:04:52;;;;;;;2.10;0.90;;;;;;;6.34;60.50;100795.66;1696078;82;21998;-64
2023/05/05 06:07:19;;;;;;;2.90;1.32;;;;;;;6.41;60.32;100802.47;1688042;83;21165;-63
2023/05/05 06:09:46;;;;;;;2.33;1.05;;;;;;;6.54;60.28;100787.61;1670877;83;20991;-64
2023/05/05 06:12:13;;;;;;;3.87;1.32;;;;;;;6.62;60.20;100796.15;1701074;83;21061;-63
2023/05/05 06:14:40;;;;;;;3.92;1.25;;;;;;;6.67;59.92;100806.03;1688255;83;21478;-63
2023/05/05 06:17:07;;;;;;;4.33;2.05;;;;;;;6.61;59.71;100809.98;1696079;83;21052;-64
2023/05/05 06:19:35;;;;;;;3.05;1.20;;;;;;;6.56;59.50;100809.22;1693961;83;21652;-64
2023/05/05 06:22:02;;;;;;;3.12;1.40;;;;;;;6.63;59.33;100822.50;1694486;82;21078;-63
2023/05/05 06:24:31;;;;;;;1.50;0.98;;;;;;;6.85;59.33;100812.24;1700617;82;21089;-64
2023/05/05 06:26:59;;;;;;;2.52;1.10;;;;;;;7.04;59.34;100814.58;1672519;83;21120;-63
2023/05/05 06:29:25;;;;;;;1.67;1.10;;;;;;;7.20;58.69;100812.58;1698454;83;21014;-64
2023/05/05 06:31:52;;;;;;;2.98;0.88;;;;;;;7.11;58.45;100812.28;1692997;82;21557;-64
2023/05/05 06:34:18;;;;;;;3.22;1.32;;;;;;;7.10;58.90;100822.27;1696174;83;21568;-69
2023/05/05 06:36:44;;;;;;;2.27;1.07;;;;;;;7.13;58.19;100813.13;1687336;83;21018;-63
2023/05/05 06:39:11;;;;;;;6.42;1.20;;;;;;;7.13;58.16;100826.11;1692262;83;21089;-63
2023/05/05 06:41:37;;;;;;;4.15;1.17;;;;;;;7.34;58.00;100810.64;1690945;82;20998;-65
2023/05/05 06:44:04;;;;;;;2.45;1.20;;;;;;;7.57;57.84;100805.05;1695069;83;20990;-64
2023/05/05 06:46:30;;;;;;;2.20;0.90;;;;;;;8.00;56.67;100810.30;1693613;83;21025;-64
2023/05/05 06:48:57;;;;;;;2.20;1.17;;;;;;;8.42;56.56;100799.94;1693081;83;21548;-64
2023/05/05 06:51:26;;;;;;;2.10;1.07;;;;;;;8.86;56.99;100811.59;1671415;83;21030;-65
2023/05/05 06:53:52;;;;;;;;;;;;;;;8.82;57.03;100811.23;1694423;83;20978;-63
2023/05/05 06:56:18;;;;;;;5.08;1.67;;;;;;;8.84;55.82;100815.52;1697408;82;20158;-64
2023/05/05 06:58:45;;;;;;;1.60;0.90;;;;;;;8.50;56.45;100804.99;1688427;83;20991;-65
2023/05/05 07:01:11;;;;;;;4.20;1.07;;;;;;;8.55;55.37;100823.98;1696124;83;21043;-64
2023/05/05 07:03:38;;;;;;;3.15;0.98;;;;;;;8.58;56.26;100808.29;1693411;83;21057;-64
2023/05/05 07:06:04;;;;;;;2.98;0.80;;;;;;;8.83;55.73;100823.37;1698040;82;21015;-64
2023/05/05 07:08:33;;;;;;;2.17;0.68;;;;;;;9.19;53.34;100825.12;1694140;83;20991;-64
2023/05/05 07:11:00;;;;;;;5.20;1.02;;;;;;;9.42;52.62;100801.55;1692124;83;21058;-64
2023/05/05 07:13:26;;;;;;;5.55;1.10;;;;;;;9.56;52.65;100832.03;1698236;82;21050;-65
2023/05/05 07:15:58;;;;;;;1.62;0.80;;;;;;;9.53;52.67;100837.33;1694930;83;20991;-65
2023/05/05 07:18:25;;;;;;;3.20;0.98;;;;;;;9.41;53.15;100808.97;1680987;83;21176;-63
2023/05/05 07:20:52;;;;;;;1.55;0.80;;;;;;;9.18;52.20;100845.99;1677869;84;21478;-64
2023/05/05 07:23:18;;;;;;;1.62;0.82;;;;;;;9.75;52.75;100815.92;1667991;85;21695;-64
2023/05/05 07:25:44;;;;;;;3.25;1.05;;;;;;;10.17;51.10;100823.48;1687656;85;20982;-65
2023/05/05 07:28:11;;;;;;;4.42;1.40;;;;;;;10.80;52.31;100822.97;1687955;83;21076;-65
2023/05/05 07:30:37;;;;;;;2.25;0.88;;;;;;;10.92;49.51;100827.37;1692546;83;21008;-73
2023/05/05 07:33:03;;;;;;;1.80;0.90;;;;;;;11.23;51.57;100808.11;1686571;83;21066;-64
2023/05/05 07:35:29;;;;;;;2.35;0.93;;;;;;;11.56;51.20;100803.48;1688916;83;21557;-64
2023/05/05 07:37:56;;;;;;;1.57;1.02;;;;;;;12.04;50.97;100826.72;1687118;83;21031;-64
2023/05/05 07:40:22;;;;;;;3.47;1.00;;;;;;;11.77;48.89;100817.61;1689888;82;20970;-67
2023/05/05 07:42:48;;;;;;;1.95;0.95;;;;;;;11.52;50.01;100813.67;1689327;83;21035;-64
2023/05/05 07:45:18;;;;;;;1.72;0.90;;;;;;;11.26;50.28;100823.69;1687390;82;21588;-66
2023/05/05 07:47:46;;;;;;;1.85;0.90;;;;;;;11.85;50.10;100813.00;1682637;82;21509;-63
2023/05/05 07:50:12;;;;;;;1.05;0.80;;;;;;;11.50;49.30;100822.02;1679275;83;21537;-63
2023/05/05 07:52:38;;;;;;;1.85;0.90;;;;;;;10.87;50.41;100831.89;1678581;83;21055;-64
2023/05/05 07:55:06;;;;;;;1.98;0.95;;;;;;;11.65;50.16;100828.51;1678009;83;21054;-63
2023/05/05 07:57:32;;;;;;;14.65;1.20;;;;;;;11.08;48.46;100834.73;1681083;83;21109;-63
2023/05/05 07:59:58;;;;;;;2.40;0.90;;;;;;;10.50;47.97;100835.61;1680242;83;20990;-62
2023/05/05 08:02:25;;;;;;;4.35;1.00;;;;;;;9.62;48.44;100844.91;1680423;83;21031;-65
2023/05/05 08:04:51;;;;;;;4.05;1.00;;;;;;;9.50;48.61;100853.50;1678966;83;20999;-63
2023/05/05 08:07:17;;;;;;;2.33;0.72;;;;;;;9.77;49.31;100845.41;1680922;83;21011;-64
2023/05/05 08:09:43;;;;;;;3.10;0.70;;;;;;;10.56;49.79;100841.52;1683467;83;21567;-64
2023/05/05 08:12:11;;;;;;;1.93;0.87;;;;;;;11.13;47.92;100853.73;1684011;82;21088;-65
2023/05/05 08:14:41;;;;;;;2.67;1.22;;;;;;;12.00;48.38;100852.16;1690642;83;20982;-65
2023/05/05 08:17:08;;;;;;;2.95;1.62;;;;;;;12.05;47.33;100846.31;1685260;83;21549;-63
2023/05/05 08:19:34;;;;;;;2.20;1.10;;;;;;;12.12;47.74;100860.03;1688949;83;21569;-64
2023/05/05 08:22:00;;;;;;;2.35;1.12;;;;;;;12.70;47.16;100861.83;1691308;83;21102;-65
2023/05/05 08:24:26;;;;;;;1.17;0.80;;;;;;;11.81;46.28;100847.98;1687124;83;21014;-65
2023/05/05 08:26:54;;;;;;;2.70;1.30;;;;;;;11.38;47.73;100848.58;1687711;83;21003;-64
2023/05/05 08:29:20;;;;;;;2.90;0.88;;;;;;;12.10;47.21;100855.33;1692564;83;21085;-64
2023/05/05 08:31:47;;;;;;;1.60;0.95;;;;;;;11.53;45.55;100834.98;1691372;83;21443;-66
2023/05/05 08:34:13;;;;;;;3.27;0.70;;;;;;;10.67;46.06;100848.17;1688872;83;21116;-63
2023/05/05 08:36:39;;;;;;;1.45;0.70;;;;;;;10.01;46.45;100848.68;1691544;82;20978;-65
2023/05/05 08:39:06;;;;;;;2.67;1.00;;;;;;;9.57;46.83;100841.56;1688821;83;21027;-64
2023/05/05 08:41:32;;;;;;;5.17;1.00;;;;;;;10.87;48.35;100848.02;1692297;83;21609;-64
2023/05/05 08:43:58;;;;;;;2.85;1.35;;;;;;;12.11;46.59;100845.24;1687816;83;21625;-65
2023/05/05 08:46:27;;;;;;;3.72;1.25;;;;;;;12.57;46.36;100855.33;1687655;83;20999;-69
2023/05/05 08:48:54;;;;;;;6.65;1.40;;;;;;;12.75;44.37;100862.52;1692723;83;21679;-64
2023/05/05 08:51:24;;;;;;;6.25;1.30;;;;;;;13.05;43.79;100874.48;1687361;83;21079;-64
2023/05/05 08:54:00;;;;;;;1.32;0.90;;;;;;;14.12;44.02;100858.74;1688711;82;21775;-65
2023/05/05 08:56:32;;;;;;;3.03;1.00;;;;;;;15.41;43.71;100847.05;1685843;83;21077;-64
2023/05/05 08:59:00;;;;;;;2.22;1.05;;;;;;;15.56;44.22;100842.79;1687607;83;21011;-64
2023/05/05 09:01:32;;;;;;;1.92;1.00;;;;;;;14.41;42.86;100835.95;1693964;83;21039;-64
2023/05/05 09:03:59;;;;;;;3.20;0.78;;;;;;;14.12;43.48;100846.45;1693852;83;20998;-62
2023/05/05 09:06:26;;;;;;;2.20;0.82;;;;;;;15.24;45.01;100847.03;1687689;83;21141;-64
2023/05/05 09:08:52;;;;;;;;;;;;;;;16.67;44.07;100854.55;1689683;83;21042;-63
2023/05/05 09:11:18;;;;;;;2.30;0.93;;;;;;;17.34;40.07;100833.27;1687723;83;20482;-64
2023/05/05 09:13:46;;;;;;;2.97;0.80;;;;;;;17.04;41.19;100843.31;1694804;82;21014;-63
2023/05/05 09:16:13;;;;;;;1.15;0.70;;;;;;;17.10;42.48;100854.83;1689177;83;21133;-64
2023/05/05 09:18:41;;;;;;;3.80;1.00;;;;;;;16.73;41.07;100848.94;1686885;82;21185;-63
2023/05/05 09:21:25;;;;;;;4.83;0.80;;;;;;;16.09;41.60;100858.98;1690845;83;21027;-68
2023/05/05 09:24:09;;;;;;;8.68;2.20;;;;;;;16.25;39.91;100837.48;1687804;82;21003;-70
2023/05/05 09:26:39;;;;;;;2.25;1.02;;;;;;;15.80;37.13;100841.59;1693027;83;21019;-63
2023/05/05 09:29:06;;;;;;;1.05;0.80;;;;;;;16.38;39.97;100847.36;1690963;83;21113;-70
2023/05/05 09:31:34;;;;;;;5.75;1.05;;;;;;;16.80;39.78;100842.03;1685102;84;21447;-63
2023/05/05 09:34:02;;;;;;;2.85;1.17;;;;;;;17.48;39.22;100850.48;1683987;84;21027;-63
2023/05/05 09:36:46;;;;;;;3.12;0.80;;;;;;;18.09;38.57;100850.84;1663415;84;20999;-66
2023/05/05 09:39:16;;;;;;;2.58;0.90;;;;;;;17.40;37.06;100846.95;1692848;83;20972;-65
2023/05/05 09:41:47;;;;;;;5.60;0.70;;;;;;;16.81;37.44;100868.81;1662361;84;21058;-66
2023/05/05 09:44:16;;;;;;;2.50;1.05;;;;;;;16.84;37.47;100861.58;1697473;83;21034;-67
2023/05/05 09:46:50;;;;;;;1.37;0.80;;;;;;;17.48;36.98;100865.00;1685563;84;21034;-64
2023/05/05 09:49:25;;;;;;;2.37;0.98;;;;;;;17.17;35.15;100856.20;1691065;83;20967;-64
2023/05/05 09:51:53;;;;;;;1.85;0.90;;;;;;;15.60;35.56;100873.28;1691469;83;21023;-66
2023/05/05 09:54:31;;;;;;;2.30;0.90;;;;;;;14.16;35.22;100885.25;1685627;83;20999;-68
2023/05/05 09:56:58;;;;;;;3.83;0.70;;;;;;;13.73;36.65;100872.66;1684667;83;21015;-68
2023/05/05 09:59:25;;;;;;;1.95;0.80;;;;;;;14.07;35.75;100881.25;1687615;83;21059;-62
2023/05/05 10:01:51;;;;;;;3.27;1.00;;;;;;;13.93;35.36;100858.22;1693268;83;21023;-62
2023/05/05 10:04:28;;;;;;;1.57;0.70;;;;;;;13.93;35.86;100873.97;1689561;83;21015;-70
2023/05/05 10:06:56;;;;;;;1.95;0.70;;;;;;;14.65;35.60;100869.97;1662552;84;21014;-68
2023/05/05 10:09:23;;;;;;;1.22;0.72;;;;;;;14.79;35.07;100872.81;1692319;83;21270;-64
2023/05/05 10:11:51;;;;;;;9.38;1.40;;;;;;;14.75;35.24;100864.66;1689904;83;21030;-64
2023/05/05 10:14:19;;;;;;;3.90;0.80;;;;;;;14.98;34.58;100909.16;1689659;83;20979;-70
2023/05/05 10:16:49;;;;;;;1.45;0.80;;;;;;;15.10;34.46;100887.99;1683705;83;21049;-68
2023/05/05 10:19:19;;;;;;;4.55;1.00;;;;;;;15.55;34.48;100864.78;1682145;83;21122;-64
2023/05/05 10:21:59;;;;;;;2.87;0.80;;;;;;;15.85;33.97;100863.28;1689067;83;21053;-71
2023/05/05 10:24:41;;;;;;;3.50;0.80;;;;;;;15.94;34.01;100858.47;1697516;83;21115;-71
2023/05/05 10:27:18;;;;;;;2.17;0.80;;;;;;;16.32;34.02;100867.83;1691151;81;21066;-62
2023/05/05 10:29:57;;;;;;;4.03;0.72;;;;;;;15.92;33.05;100859.00;1688708;83;21069;-63
2023/05/05 10:32:30;;;;;;;2.75;0.90;;;;;;;15.32;33.37;100872.03;1678298;83;21058;-64
2023/05/05 10:35:06;;;;;;;2.92;0.80;;;;;;;15.33;33.30;100865.83;1686483;82;21058;-71
2023/05/05 10:37:39;;;;;;;6.17;0.87;;;;;;;15.12;32.85;100862.91;1689272;83;21049;-65
2023/05/05 10:40:04;;;;;;;3.33;0.90;;;;;;;16.24;33.96;100871.33;1688507;83;21003;-62
2023/05/05 10:42:31;;;;;;;9.18;1.52;;;;;;;17.46;34.03;100849.71;1690213;83;21045;-66
2023/05/05 10:44:59;;;;;;;3.50;0.72;;;;;;;17.79;32.28;100876.45;1689852;82;21042;-64
2023/05/05 10:47:27;;;;;;;1.87;0.62;;;;;;;16.50;31.40;100873.08;1687457;83;21050;-70
2023/05/05 10:50:10;;;;;;;5.65;1.02;;;;;;;15.50;32.35;100848.36;1687660;83;21070;-62
2023/05/05 10:52:39;;;;;;;6.03;1.10;;;;;;;16.01;32.32;100862.47;1689916;83;21001;-63
2023/05/05 10:55:45;;;;;;;1.52;0.72;;;;;;;16.69;32.17;100863.25;1686704;83;21490;-63
2023/05/05 10:58:34;;;;;;;7.65;0.85;;;;;;;16.44;31.62;100860.20;1688889;83;21022;-62
2023/05/05 11:01:01;;;;;;;1.32;0.75;;;;;;;16.37;31.53;100861.48;1698343;83;21616;-62
2023/05/05 11:03:28;;;;;;;5.28;1.20;;;;;;;16.80;32.52;100846.84;1691740;82;21038;-62
2023/05/05 11:06:08;;;;;;;9.05;1.27;;;;;;;17.47;30.83;100865.92;1687167;83;21030;-62
2023/05/05 11:08:41;;;;;;;9.83;0.95;;;;;;;17.13;30.85;100861.73;1689572;83;21081;-62
2023/05/05 11:11:05;;;;;;;2.08;0.78;;;;;;;16.54;30.75;100837.69;1690768;83;21569;-63
2023/05/05 11:13:32;;;;;;;;;;;;;;;16.05;30.59;100847.75;1694553;82;21644;-69
2023/05/05 11:16:02;;;;;;;1.50;0.60;;;;;;;15.25;30.84;100858.77;1691056;83;20490;-63
2023/05/05 11:18:37;;;;;;;7.28;1.07;;;;;;;15.07;31.39;100834.66;1686908;82;21042;-63
2023/05/05 11:21:15;;;;;;;3.20;0.90;;;;;;;15.23;31.31;100836.94;1692146;83;21066;-64
2023/05/05 11:23:44;;;;;;;2.20;1.07;;;;;;;15.24;30.74;100842.61;1692001;83;21053;-63
2023/05/05 11:26:12;;;;;;;2.92;0.75;;;;;;;14.43;30.77;100832.80;1693056;83;21048;-64
2023/05/05 11:29:01;;;;;;;1.22;0.90;;;;;;;14.25;31.07;100824.42;1693526;83;21042;-64
2023/05/05 11:31:29;;;;;;;0.95;0.72;;;;;;;14.63;31.70;100833.69;1669714;83;21533;-69
2023/05/05 11:34:16;;;;;;;1.55;0.70;;;;;;;15.63;31.96;100833.66;1693615;83;21061;-62
2023/05/05 11:36:43;;;;;;;1.65;0.90;;;;;;;15.10;30.59;100826.65;1693545;83;20963;-66
2023/05/05 11:39:30;;;;;;;3.55;0.98;;;;;;;13.54;31.15;100836.67;1693075;83;21058;-69
2023/05/05 11:42:14;;;;;;;1.55;0.90;;;;;;;12.79;31.24;100842.73;1687938;82;21081;-69